createdAt,value
2022-12-26T00:00:45.198Z,1003.28
2022-12-26T00:01:45.121Z,1003.24
2022-12-26T00:02:45.176Z,1003.22
2022-12-26T00:03:45.260Z,1003.13
2022-12-26T00:04:51.957Z,1003.08
2022-12-26T00:05:45.091Z,1003.07
2022-12-26T00:06:45.065Z,1003.12
2022-12-26T00:07:45.048Z,1003.12
2022-12-26T00:08:45.049Z,1003.11
2022-12-26T00:09:45.032Z,1003.07
2022-12-26T00:10:45.030Z,1003.10
2022-12-26T00:11:45.005Z,1003.17
2022-12-26T00:12:44.999Z,1003.19
2022-12-26T00:13:44.984Z,1003.20
2022-12-26T00:14:44.977Z,1003.17
2022-12-26T00:15:44.974Z,1003.18
2022-12-26T00:16:45.050Z,1003.21
2022-12-26T00:17:44.939Z,1003.29
2022-12-26T00:18:44.931Z,1003.37
2022-12-26T00:19:44.917Z,1003.33
2022-12-26T00:20:44.927Z,1003.29
2022-12-26T00:21:44.893Z,1003.24
2022-12-26T00:22:44.889Z,1003.20
2022-12-26T00:23:44.874Z,1003.22
2022-12-26T00:24:44.870Z,1003.17
2022-12-26T00:25:44.858Z,1003.17
2022-12-26T00:26:44.840Z,1003.14
2022-12-26T00:27:44.827Z,1003.22
2022-12-26T00:28:44.819Z,1003.28
2022-12-26T00:29:44.813Z,1003.22
2022-12-26T00:30:44.805Z,1003.23
2022-12-26T00:31:44.873Z,1003.28
2022-12-26T00:32:44.776Z,1003.30
2022-12-26T00:33:44.772Z,1003.31
2022-12-26T00:34:44.757Z,1003.24
2022-12-26T00:35:44.786Z,1003.26
2022-12-26T00:36:44.746Z,1003.29
2022-12-26T00:37:44.717Z,1003.32
2022-12-26T00:38:44.706Z,1003.29
2022-12-26T00:39:44.692Z,1003.33
2022-12-26T00:40:44.695Z,1003.37
2022-12-26T00:41:44.675Z,1003.34
2022-12-26T00:42:44.669Z,1003.35
2022-12-26T00:43:44.665Z,1003.40
2022-12-26T00:44:44.653Z,1003.34
2022-12-26T00:45:44.640Z,1003.33
2022-12-26T00:46:44.662Z,1003.24
2022-12-26T00:47:44.603Z,1003.32
2022-12-26T00:48:44.643Z,1003.34
2022-12-26T00:50:13.128Z,1003.31
2022-12-26T00:50:44.596Z,1003.27
2022-12-26T00:51:44.567Z,1003.24
2022-12-26T00:52:44.560Z,1003.25
2022-12-26T00:53:44.579Z,1003.24
2022-12-26T00:54:44.547Z,1003.24
2022-12-26T00:55:44.533Z,1003.29
2022-12-26T00:56:44.516Z,1003.29
2022-12-26T00:57:44.498Z,1003.36
2022-12-26T00:58:44.503Z,1003.40
2022-12-26T00:59:44.483Z,1003.49
2022-12-26T01:00:44.527Z,1003.45
2022-12-26T01:01:44.629Z,1003.41
2022-12-26T01:02:44.622Z,1003.40
2022-12-26T01:03:44.427Z,1003.37
2022-12-26T01:04:44.423Z,1003.36
2022-12-26T01:05:44.423Z,1003.35
2022-12-26T01:06:44.402Z,1003.37
2022-12-26T01:08:19.737Z,1003.35
2022-12-26T01:08:44.401Z,1003.35
2022-12-26T01:09:44.360Z,1003.40
2022-12-26T01:10:44.357Z,1003.45
2022-12-26T01:11:44.364Z,1003.45
2022-12-26T01:12:44.484Z,1003.40
2022-12-26T01:13:44.315Z,1003.45
2022-12-26T01:14:44.311Z,1003.54
2022-12-26T01:15:44.317Z,1003.54
2022-12-26T01:16:44.465Z,1003.47
2022-12-26T01:17:44.272Z,1003.43
2022-12-26T01:18:44.266Z,1003.44
2022-12-26T01:19:44.250Z,1003.52
2022-12-26T01:20:44.245Z,1003.54
2022-12-26T01:21:44.257Z,1003.54
2022-12-26T01:22:44.221Z,1003.58
2022-12-26T01:23:44.206Z,1003.58
2022-12-26T01:24:44.200Z,1003.58
2022-12-26T01:26:18.131Z,1003.57
2022-12-26T01:26:44.205Z,1003.56
2022-12-26T01:27:44.166Z,1003.68
2022-12-26T01:28:44.152Z,1003.66
2022-12-26T01:29:44.140Z,1003.60
2022-12-26T01:30:44.148Z,1003.66
2022-12-26T01:31:44.179Z,1003.60
2022-12-26T01:32:44.116Z,1003.66
2022-12-26T01:33:44.127Z,1003.63
2022-12-26T01:34:44.089Z,1003.66
2022-12-26T01:35:44.074Z,1003.68
2022-12-26T01:36:44.075Z,1003.61
2022-12-26T01:37:44.054Z,1003.58
2022-12-26T01:38:44.045Z,1003.60
2022-12-26T01:39:44.032Z,1003.64
2022-12-26T01:40:44.050Z,1003.66
2022-12-26T01:41:44.020Z,1003.64
2022-12-26T01:42:44.013Z,1003.59
2022-12-26T01:43:43.991Z,1003.63
2022-12-26T01:44:43.985Z,1003.68
2022-12-26T01:45:43.987Z,1003.69
2022-12-26T01:46:43.978Z,1003.70
2022-12-26T01:47:43.940Z,1003.65
2022-12-26T01:48:43.938Z,1003.65
2022-12-26T01:49:43.923Z,1003.67
2022-12-26T01:50:43.925Z,1003.69
2022-12-26T01:51:43.903Z,1003.70
2022-12-26T01:52:43.891Z,1003.72
2022-12-26T01:53:43.891Z,1003.71
2022-12-26T01:54:43.867Z,1003.74
2022-12-26T01:55:43.854Z,1003.75
2022-12-26T01:56:43.856Z,1003.71
2022-12-26T01:57:43.830Z,1003.76
2022-12-26T01:58:43.828Z,1003.76
2022-12-26T01:59:43.814Z,1003.73
2022-12-26T02:00:43.832Z,1003.67
2022-12-26T02:01:43.956Z,1003.68
2022-12-26T02:02:43.912Z,1003.69
2022-12-26T02:03:43.764Z,1003.70
2022-12-26T02:04:43.779Z,1003.70
2022-12-26T02:05:43.745Z,1003.64
2022-12-26T02:06:43.747Z,1003.66
2022-12-26T02:07:43.726Z,1003.62
2022-12-26T02:08:43.713Z,1003.58
2022-12-26T02:09:43.700Z,1003.59
2022-12-26T02:10:43.691Z,1003.66
2022-12-26T02:11:43.690Z,1003.67
2022-12-26T02:12:43.675Z,1003.68
2022-12-26T02:13:43.653Z,1003.67
2022-12-26T02:14:43.654Z,1003.68
2022-12-26T02:15:43.649Z,1003.62
2022-12-26T02:16:43.677Z,1003.58
2022-12-26T02:17:43.667Z,1003.64
2022-12-26T02:18:43.606Z,1003.69
2022-12-26T02:19:43.589Z,1003.69
2022-12-26T02:20:43.582Z,1003.71
2022-12-26T02:21:43.581Z,1003.69
2022-12-26T02:22:43.566Z,1003.66
2022-12-26T02:23:43.545Z,1003.70
2022-12-26T02:24:43.540Z,1003.77
2022-12-26T02:25:43.522Z,1003.78
2022-12-26T02:26:43.540Z,1003.76
2022-12-26T02:27:43.500Z,1003.84
2022-12-26T02:28:43.524Z,1003.83
2022-12-26T02:29:43.477Z,1003.90
2022-12-26T02:30:43.475Z,1003.92
2022-12-26T02:31:43.478Z,1003.94
2022-12-26T02:32:43.457Z,1003.87
2022-12-26T02:33:43.431Z,1003.80
2022-12-26T02:34:43.429Z,1003.85
2022-12-26T02:35:43.413Z,1003.88
2022-12-26T02:36:43.408Z,1003.97
2022-12-26T02:37:43.400Z,1004.00
2022-12-26T02:38:43.380Z,1003.99
2022-12-26T02:39:46.714Z,1003.99
2022-12-26T02:40:43.387Z,1003.95
2022-12-26T02:41:43.343Z,1003.89
2022-12-26T02:42:43.380Z,1003.95
2022-12-26T02:43:43.320Z,1003.93
2022-12-26T02:44:43.861Z,1003.95
2022-12-26T02:45:44.335Z,1003.96
2022-12-26T02:46:45.935Z,1003.92
2022-12-26T02:47:45.926Z,1003.92
2022-12-26T02:48:43.269Z,1003.91
2022-12-26T02:49:43.255Z,1003.85
2022-12-26T02:50:43.258Z,1003.83
2022-12-26T02:51:43.246Z,1003.86
2022-12-26T02:52:43.241Z,1003.90
2022-12-26T02:53:43.229Z,1003.87
2022-12-26T02:54:43.212Z,1003.82
2022-12-26T02:55:43.190Z,1003.82
2022-12-26T02:56:43.182Z,1003.76
2022-12-26T02:57:43.175Z,1003.86
2022-12-26T02:58:43.158Z,1003.87
2022-12-26T02:59:53.933Z,1003.89
2022-12-26T03:00:43.156Z,1003.89
2022-12-26T03:01:43.238Z,1003.95
2022-12-26T03:02:43.217Z,1003.96
2022-12-26T03:03:43.106Z,1003.96
2022-12-26T03:04:43.091Z,1003.95
2022-12-26T03:05:43.082Z,1003.96
2022-12-26T03:06:43.072Z,1003.95
2022-12-26T03:07:43.069Z,1003.93
2022-12-26T03:08:43.043Z,1003.87
2022-12-26T03:09:43.041Z,1003.92
2022-12-26T03:10:43.020Z,1003.93
2022-12-26T03:11:43.016Z,1003.91
2022-12-26T03:12:43.007Z,1003.90
2022-12-26T03:13:43.007Z,1003.89
2022-12-26T03:14:42.980Z,1003.90
2022-12-26T03:15:42.971Z,1003.88
2022-12-26T03:16:42.975Z,1003.89
2022-12-26T03:17:42.963Z,1003.90
2022-12-26T03:18:57.003Z,1003.87
2022-12-26T03:19:42.933Z,1003.89
2022-12-26T03:20:42.913Z,1003.90
2022-12-26T03:21:42.906Z,1003.89
2022-12-26T03:22:42.926Z,1003.90
2022-12-26T03:23:42.881Z,1003.86
2022-12-26T03:24:42.869Z,1003.88
2022-12-26T03:25:42.859Z,1003.91
2022-12-26T03:26:42.861Z,1003.97
2022-12-26T03:27:42.853Z,1003.96
2022-12-26T03:28:42.828Z,1003.95
2022-12-26T03:29:42.815Z,1003.98
2022-12-26T03:30:42.831Z,1004.03
2022-12-26T03:31:42.793Z,1004.03
2022-12-26T03:32:42.790Z,1004.05
2022-12-26T03:33:42.772Z,1003.97
2022-12-26T03:34:42.758Z,1003.98
2022-12-26T03:35:42.749Z,1003.97
2022-12-26T03:36:42.735Z,1003.99
2022-12-26T03:37:48.450Z,1003.99
2022-12-26T03:38:42.717Z,1003.99
2022-12-26T03:39:42.709Z,1003.97
2022-12-26T03:40:42.688Z,1003.99
2022-12-26T03:41:42.682Z,1003.98
2022-12-26T03:42:42.685Z,1003.97
2022-12-26T03:43:42.665Z,1003.93
2022-12-26T03:44:44.215Z,1004.00
2022-12-26T03:45:42.691Z,1003.98
2022-12-26T03:46:42.622Z,1004.03
2022-12-26T03:47:42.620Z,1004.02
2022-12-26T03:48:42.607Z,1004.03
2022-12-26T03:49:42.594Z,1003.98
2022-12-26T03:50:42.580Z,1004.01
2022-12-26T03:51:42.584Z,1004.00
2022-12-26T03:52:42.554Z,1004.00
2022-12-26T03:53:42.558Z,1003.95
2022-12-26T03:54:42.533Z,1003.95
2022-12-26T03:55:42.525Z,1003.93
2022-12-26T03:56:42.517Z,1003.99
2022-12-26T03:57:42.517Z,1004.05
2022-12-26T03:58:42.504Z,1004.06
2022-12-26T03:59:42.528Z,1004.07
2022-12-26T04:00:42.467Z,1004.07
2022-12-26T04:01:42.565Z,1004.04
2022-12-26T04:02:42.444Z,1004.02
2022-12-26T04:03:42.595Z,1004.06
2022-12-26T04:04:42.423Z,1004.05
2022-12-26T04:05:42.416Z,1004.11
2022-12-26T04:06:42.407Z,1004.05
2022-12-26T04:07:56.172Z,1004.12
2022-12-26T04:08:42.398Z,1004.13
2022-12-26T04:09:42.379Z,1004.10
2022-12-26T04:10:42.363Z,1004.09
2022-12-26T04:11:42.348Z,1004.09
2022-12-26T04:12:42.333Z,1004.06
2022-12-26T04:13:42.334Z,1004.01
2022-12-26T04:14:42.318Z,1004.05
2022-12-26T04:15:42.337Z,1004.06
2022-12-26T04:16:42.289Z,1004.05
2022-12-26T04:17:42.282Z,1004.03
2022-12-26T04:18:42.280Z,1004.01
2022-12-26T04:19:42.272Z,1003.99
2022-12-26T04:20:42.247Z,1003.96
2022-12-26T04:21:42.235Z,1003.93
2022-12-26T04:22:42.235Z,1003.93
2022-12-26T04:23:42.219Z,1003.88
2022-12-26T04:24:42.224Z,1003.89
2022-12-26T04:25:48.355Z,1003.95
2022-12-26T04:26:42.187Z,1003.94
2022-12-26T04:27:42.170Z,1003.98
2022-12-26T04:28:42.171Z,1004.02
2022-12-26T04:29:42.155Z,1004.02
2022-12-26T04:30:42.184Z,1004.00
2022-12-26T04:31:42.190Z,1004.04
2022-12-26T04:32:42.115Z,1004.11
2022-12-26T04:33:42.108Z,1004.14
2022-12-26T04:34:42.094Z,1004.17
2022-12-26T04:35:42.083Z,1004.16
2022-12-26T04:36:42.073Z,1004.14
2022-12-26T04:37:42.062Z,1004.26
2022-12-26T04:38:42.060Z,1004.23
2022-12-26T04:39:42.040Z,1004.26
2022-12-26T04:40:42.026Z,1004.28
2022-12-26T04:41:42.030Z,1004.28
2022-12-26T04:42:42.005Z,1004.29
2022-12-26T04:43:49.048Z,1004.37
2022-12-26T04:44:41.989Z,1004.39
2022-12-26T04:45:41.964Z,1004.42
2022-12-26T04:46:42.059Z,1004.43
2022-12-26T04:47:41.945Z,1004.41
2022-12-26T04:48:41.951Z,1004.43
2022-12-26T04:49:41.923Z,1004.43
2022-12-26T04:50:41.916Z,1004.31
2022-12-26T04:51:41.923Z,1004.35
2022-12-26T04:52:41.894Z,1004.33
2022-12-26T04:53:41.900Z,1004.35
2022-12-26T04:54:41.881Z,1004.39
2022-12-26T04:55:41.857Z,1004.41
2022-12-26T04:56:41.858Z,1004.38
2022-12-26T04:57:41.833Z,1004.43
2022-12-26T04:58:41.837Z,1004.44
2022-12-26T04:59:41.818Z,1004.50
2022-12-26T05:00:41.808Z,1004.45
2022-12-26T05:01:41.930Z,1004.56
2022-12-26T05:02:41.982Z,1004.59
2022-12-26T05:03:41.839Z,1004.61
2022-12-26T05:04:41.767Z,1004.62
2022-12-26T05:05:41.743Z,1004.64
2022-12-26T05:06:41.738Z,1004.65
2022-12-26T05:07:41.726Z,1004.67
2022-12-26T05:08:41.732Z,1004.67
2022-12-26T05:09:41.707Z,1004.60
2022-12-26T05:10:41.703Z,1004.66
2022-12-26T05:11:41.677Z,1004.68
2022-12-26T05:12:41.676Z,1004.70
2022-12-26T05:13:41.667Z,1004.70
2022-12-26T05:14:41.650Z,1004.65
2022-12-26T05:15:41.711Z,1004.73
2022-12-26T05:16:41.649Z,1004.72
2022-12-26T05:17:41.645Z,1004.72
2022-12-26T05:18:41.623Z,1004.71
2022-12-26T05:19:41.590Z,1004.71
2022-12-26T05:20:41.582Z,1004.68
2022-12-26T05:21:41.571Z,1004.76
2022-12-26T05:22:41.574Z,1004.73
2022-12-26T05:23:41.557Z,1004.77
2022-12-26T05:24:41.534Z,1004.82
2022-12-26T05:25:41.525Z,1004.82
2022-12-26T05:26:41.524Z,1004.82
2022-12-26T05:27:41.501Z,1004.78
2022-12-26T05:28:41.512Z,1004.76
2022-12-26T05:29:41.482Z,1004.74
2022-12-26T05:30:41.484Z,1004.67
2022-12-26T05:31:41.583Z,1004.70
2022-12-26T05:32:41.450Z,1004.72
2022-12-26T05:33:41.463Z,1004.72
2022-12-26T05:34:41.430Z,1004.72
2022-12-26T05:35:41.427Z,1004.65
2022-12-26T05:36:41.415Z,1004.64
2022-12-26T05:37:41.387Z,1004.57
2022-12-26T05:38:41.393Z,1004.64
2022-12-26T05:39:41.382Z,1004.63
2022-12-26T05:40:41.364Z,1004.68
2022-12-26T05:41:41.346Z,1004.70
2022-12-26T05:42:41.345Z,1004.70
2022-12-26T05:43:41.325Z,1004.78
2022-12-26T05:44:41.333Z,1004.75
2022-12-26T05:45:41.304Z,1004.68
2022-12-26T05:46:41.431Z,1004.72
2022-12-26T05:47:42.165Z,1004.77
2022-12-26T05:48:41.336Z,1004.73
2022-12-26T05:49:41.273Z,1004.73
2022-12-26T05:50:41.257Z,1004.69
2022-12-26T05:51:41.243Z,1004.71
2022-12-26T05:52:41.228Z,1004.78
2022-12-26T05:53:41.212Z,1004.90
2022-12-26T05:54:41.220Z,1004.93
2022-12-26T05:55:41.201Z,1004.88
2022-12-26T05:56:45.905Z,1004.86
2022-12-26T05:57:41.175Z,1004.84
2022-12-26T05:58:41.182Z,1004.85
2022-12-26T05:59:41.155Z,1004.87
2022-12-26T06:00:41.140Z,1004.91
2022-12-26T06:01:41.220Z,1004.91
2022-12-26T06:02:41.245Z,1004.93
2022-12-26T06:03:41.129Z,1004.92
2022-12-26T06:04:41.100Z,1004.93
2022-12-26T06:05:41.087Z,1004.87
2022-12-26T06:06:41.076Z,1004.91
2022-12-26T06:07:41.070Z,1004.87
2022-12-26T06:08:41.051Z,1004.86
2022-12-26T06:09:41.052Z,1004.89
2022-12-26T06:10:41.039Z,1004.88
2022-12-26T06:11:48.401Z,1004.88
2022-12-26T06:12:41.018Z,1004.85
2022-12-26T06:13:40.999Z,1004.87
2022-12-26T06:14:40.988Z,1004.87
2022-12-26T06:15:40.975Z,1004.87
2022-12-26T06:16:41.019Z,1004.84
2022-12-26T06:17:40.953Z,1004.85
2022-12-26T06:18:40.968Z,1004.78
2022-12-26T06:19:46.483Z,1004.73
2022-12-26T06:20:40.933Z,1004.73
2022-12-26T06:21:40.910Z,1004.74
2022-12-26T06:22:40.897Z,1004.67
2022-12-26T06:23:40.899Z,1004.64
2022-12-26T06:24:40.882Z,1004.61
2022-12-26T06:25:40.868Z,1004.57
2022-12-26T06:26:40.853Z,1004.57
2022-12-26T06:27:40.848Z,1004.52
2022-12-26T06:28:40.871Z,1004.58
2022-12-26T06:29:40.832Z,1004.61
2022-12-26T06:30:40.807Z,1004.55
2022-12-26T06:31:40.905Z,1004.52
2022-12-26T06:32:40.785Z,1004.51
2022-12-26T06:33:40.776Z,1004.53
2022-12-26T06:34:40.777Z,1004.50
2022-12-26T06:35:40.757Z,1004.52
2022-12-26T06:36:40.740Z,1004.51
2022-12-26T06:37:40.731Z,1004.53
2022-12-26T06:38:40.728Z,1004.53
2022-12-26T06:39:40.725Z,1004.52
2022-12-26T06:40:40.696Z,1004.52
2022-12-26T06:41:40.689Z,1004.55
2022-12-26T06:42:40.675Z,1004.51
2022-12-26T06:43:40.672Z,1004.54
2022-12-26T06:44:40.660Z,1004.56
2022-12-26T06:45:40.645Z,1004.56
2022-12-26T06:46:40.674Z,1004.47
2022-12-26T06:47:40.626Z,1004.45
2022-12-26T06:48:40.611Z,1004.36
2022-12-26T06:49:40.617Z,1004.28
2022-12-26T06:50:40.587Z,1004.35
2022-12-26T06:51:40.578Z,1004.34
2022-12-26T06:52:40.566Z,1004.39
2022-12-26T06:53:40.587Z,1004.39
2022-12-26T06:54:40.542Z,1004.43
2022-12-26T06:55:40.542Z,1004.39
2022-12-26T06:56:40.581Z,1004.45
2022-12-26T06:57:40.518Z,1004.45
2022-12-26T06:58:40.501Z,1004.52
2022-12-26T06:59:40.493Z,1004.59
2022-12-26T07:00:40.538Z,1004.59
2022-12-26T07:01:40.712Z,1004.59
2022-12-26T07:02:40.643Z,1004.64
2022-12-26T07:03:46.564Z,1004.67
2022-12-26T07:04:40.433Z,1004.64
2022-12-26T07:05:40.431Z,1004.73
2022-12-26T07:06:40.415Z,1004.75
2022-12-26T07:07:40.410Z,1004.72
2022-12-26T07:08:40.386Z,1004.67
2022-12-26T07:09:40.383Z,1004.73
2022-12-26T07:10:40.372Z,1004.72
2022-12-26T07:11:40.364Z,1004.76
2022-12-26T07:12:40.348Z,1004.80
2022-12-26T07:13:40.332Z,1004.77
2022-12-26T07:14:40.320Z,1004.73
2022-12-26T07:15:40.322Z,1004.79
2022-12-26T07:16:40.358Z,1004.90
2022-12-26T07:17:40.291Z,1004.95
2022-12-26T07:18:40.279Z,1004.99
2022-12-26T07:19:40.266Z,1005.04
2022-12-26T07:20:40.263Z,1005.10
2022-12-26T07:21:41.222Z,1005.15
2022-12-26T07:22:40.233Z,1005.18
2022-12-26T07:23:40.230Z,1005.18
2022-12-26T07:24:40.208Z,1005.18
2022-12-26T07:25:40.208Z,1005.15
2022-12-26T07:26:40.187Z,1005.10
2022-12-26T07:27:40.179Z,1005.01
2022-12-26T07:28:40.175Z,1005.06
2022-12-26T07:29:40.160Z,1005.04
2022-12-26T07:30:40.166Z,1005.09
2022-12-26T07:31:40.186Z,1005.08
2022-12-26T07:32:40.125Z,1005.09
2022-12-26T07:33:40.132Z,1005.06
2022-12-26T07:34:40.100Z,1005.10
2022-12-26T07:35:40.107Z,1005.12
2022-12-26T07:36:40.082Z,1005.13
2022-12-26T07:37:40.071Z,1005.14
2022-12-26T07:38:40.057Z,1005.10
2022-12-26T07:39:40.076Z,1005.10
2022-12-26T07:40:40.060Z,1005.06
2022-12-26T07:41:40.184Z,1005.02
2022-12-26T07:42:40.014Z,1005.15
2022-12-26T07:43:40.001Z,1005.14
2022-12-26T07:44:39.992Z,1005.15
2022-12-26T07:45:45.391Z,1005.21
2022-12-26T07:46:40.070Z,1005.25
2022-12-26T07:47:39.964Z,1005.29
2022-12-26T07:48:39.947Z,1005.32
2022-12-26T07:49:39.942Z,1005.24
2022-12-26T07:50:39.943Z,1005.10
2022-12-26T07:51:39.916Z,1005.09
2022-12-26T07:52:39.905Z,1005.10
2022-12-26T07:53:39.902Z,1005.07
2022-12-26T07:54:39.876Z,1005.02
2022-12-26T07:55:39.871Z,1005.05
2022-12-26T07:56:39.883Z,1005.06
2022-12-26T07:57:48.963Z,1005.00
2022-12-26T07:58:39.845Z,1005.01
2022-12-26T07:59:39.831Z,1005.08
2022-12-26T08:00:39.950Z,1005.07
2022-12-26T08:01:40.013Z,1005.07
2022-12-26T08:02:40.039Z,1005.07
2022-12-26T08:03:39.894Z,1005.00
2022-12-26T08:04:39.775Z,1005.08
2022-12-26T08:05:39.767Z,1005.07
2022-12-26T08:06:39.751Z,1005.06
2022-12-26T08:07:39.744Z,1005.10
2022-12-26T08:08:41.915Z,1005.03
2022-12-26T08:09:39.727Z,1005.05
2022-12-26T08:10:39.705Z,1005.03
2022-12-26T08:11:39.701Z,1004.99
2022-12-26T08:12:39.683Z,1005.00
2022-12-26T08:13:39.681Z,1005.04
2022-12-26T08:14:39.672Z,1005.07
2022-12-26T08:15:39.657Z,1005.05
2022-12-26T08:16:39.696Z,1005.00
2022-12-26T08:17:39.630Z,1005.03
2022-12-26T08:18:39.623Z,1005.04
2022-12-26T08:19:39.608Z,1005.09
2022-12-26T08:20:39.601Z,1005.16
2022-12-26T08:21:39.603Z,1005.18
2022-12-26T08:22:39.578Z,1005.22
2022-12-26T08:23:39.564Z,1005.22
2022-12-26T08:24:39.547Z,1005.24
2022-12-26T08:25:39.543Z,1005.26
2022-12-26T08:26:39.539Z,1005.33
2022-12-26T08:27:39.528Z,1005.32
2022-12-26T08:28:39.520Z,1005.35
2022-12-26T08:29:39.496Z,1005.41
2022-12-26T08:30:39.489Z,1005.42
2022-12-26T08:31:39.510Z,1005.43
2022-12-26T08:32:42.464Z,1005.50
2022-12-26T08:33:39.450Z,1005.48
2022-12-26T08:34:39.439Z,1005.44
2022-12-26T08:35:39.474Z,1005.40
2022-12-26T08:36:39.438Z,1005.37
2022-12-26T08:37:39.409Z,1005.42
2022-12-26T08:38:39.397Z,1005.43
2022-12-26T08:39:39.392Z,1005.43
2022-12-26T08:40:44.101Z,1005.45
2022-12-26T08:41:39.373Z,1005.45
2022-12-26T08:42:55.950Z,1005.46
2022-12-26T08:44:16.562Z,1005.38
2022-12-26T08:44:39.336Z,1005.44
2022-12-26T08:45:39.364Z,1005.42
2022-12-26T08:46:39.315Z,1005.46
2022-12-26T08:47:39.298Z,1005.45
2022-12-26T08:48:39.322Z,1005.43
2022-12-26T08:49:39.278Z,1005.39
2022-12-26T08:50:41.324Z,1005.45
2022-12-26T08:51:39.265Z,1005.38
2022-12-26T08:52:39.238Z,1005.39
2022-12-26T08:53:39.230Z,1005.44
2022-12-26T08:54:39.224Z,1005.39
2022-12-26T08:55:39.203Z,1005.35
2022-12-26T08:56:39.291Z,1005.38
2022-12-26T08:57:39.180Z,1005.34
2022-12-26T08:58:39.203Z,1005.25
2022-12-26T08:59:39.159Z,1005.28
2022-12-26T09:00:39.156Z,1005.30
2022-12-26T09:01:39.222Z,1005.24
2022-12-26T09:02:39.395Z,1005.24
2022-12-26T09:03:39.121Z,1005.16
2022-12-26T09:04:39.103Z,1005.20
2022-12-26T09:05:39.100Z,1005.21
2022-12-26T09:06:39.215Z,1005.19
2022-12-26T09:07:39.083Z,1005.18
2022-12-26T09:08:39.059Z,1005.21
2022-12-26T09:09:39.056Z,1005.21
2022-12-26T09:10:39.038Z,1005.23
2022-12-26T09:11:39.044Z,1005.28
2022-12-26T09:12:39.018Z,1005.25
2022-12-26T09:13:39.035Z,1005.30
2022-12-26T09:14:38.992Z,1005.18
2022-12-26T09:15:38.986Z,1005.16
2022-12-26T09:16:43.003Z,1005.25
2022-12-26T09:17:38.968Z,1005.32
2022-12-26T09:18:38.986Z,1005.20
2022-12-26T09:19:38.946Z,1005.27
2022-12-26T09:20:38.933Z,1005.32
2022-12-26T09:21:38.928Z,1005.25
2022-12-26T09:22:38.908Z,1005.25
2022-12-26T09:23:38.900Z,1005.32
2022-12-26T09:24:38.899Z,1005.26
2022-12-26T09:25:38.882Z,1005.41
2022-12-26T09:26:38.878Z,1005.32
2022-12-26T09:27:38.859Z,1005.41
2022-12-26T09:28:38.852Z,1005.39
2022-12-26T09:29:38.834Z,1005.41
2022-12-26T09:30:38.841Z,1005.52
2022-12-26T09:31:38.828Z,1005.55
2022-12-26T09:32:38.799Z,1005.50
2022-12-26T09:33:38.824Z,1005.57
2022-12-26T09:34:38.776Z,1005.46
2022-12-26T09:35:38.766Z,1005.51
2022-12-26T09:36:38.751Z,1005.57
2022-12-26T09:37:38.752Z,1005.58
2022-12-26T09:38:38.727Z,1005.55
2022-12-26T09:39:38.779Z,1005.56
2022-12-26T09:40:38.708Z,1005.59
2022-12-26T09:41:38.698Z,1005.58
2022-12-26T09:42:38.702Z,1005.63
2022-12-26T09:43:38.679Z,1005.64
2022-12-26T09:44:38.691Z,1005.59
2022-12-26T09:45:38.660Z,1005.57
2022-12-26T09:46:38.793Z,1005.51
2022-12-26T09:47:38.644Z,1005.60
2022-12-26T09:48:38.618Z,1005.63
2022-12-26T09:49:38.613Z,1005.54
2022-12-26T09:50:42.921Z,1005.49
2022-12-26T09:51:38.594Z,1005.56
2022-12-26T09:52:38.586Z,1005.56
2022-12-26T09:53:38.569Z,1005.58
2022-12-26T09:54:38.556Z,1005.58
2022-12-26T09:55:38.548Z,1005.66
2022-12-26T09:57:02.266Z,1005.54
2022-12-26T09:57:38.546Z,1005.54
2022-12-26T09:58:38.519Z,1005.55
2022-12-26T09:59:38.501Z,1005.47
2022-12-26T10:00:38.490Z,1005.44
2022-12-26T10:01:38.562Z,1005.46
2022-12-26T10:02:38.572Z,1005.48
2022-12-26T10:03:38.458Z,1005.32
2022-12-26T10:04:38.500Z,1005.46
2022-12-26T10:05:38.440Z,1005.41
2022-12-26T10:06:38.423Z,1005.46
2022-12-26T10:07:38.442Z,1005.52
2022-12-26T10:08:38.403Z,1005.60
2022-12-26T10:09:38.399Z,1005.49
2022-12-26T10:10:38.378Z,1005.55
2022-12-26T10:11:38.376Z,1005.46
2022-12-26T10:12:38.375Z,1005.55
2022-12-26T10:13:38.349Z,1005.51
2022-12-26T10:14:38.335Z,1005.59
2022-12-26T10:15:38.380Z,1005.59
2022-12-26T10:16:38.314Z,1005.55
2022-12-26T10:17:38.317Z,1005.59
2022-12-26T10:18:38.290Z,1005.68
2022-12-26T10:19:38.283Z,1005.58
2022-12-26T10:20:38.273Z,1005.62
2022-12-26T10:21:38.263Z,1005.58
2022-12-26T10:22:38.275Z,1005.63
2022-12-26T10:23:38.242Z,1005.56
2022-12-26T10:24:38.231Z,1005.68
2022-12-26T10:25:38.219Z,1005.61
2022-12-26T10:26:38.202Z,1005.58
2022-12-26T10:27:38.204Z,1005.69
2022-12-26T10:28:38.181Z,1005.67
2022-12-26T10:29:38.179Z,1005.63
2022-12-26T10:30:38.157Z,1005.62
2022-12-26T10:31:38.154Z,1005.58
2022-12-26T10:32:38.160Z,1005.60
2022-12-26T10:33:38.140Z,1005.62
2022-12-26T10:34:38.116Z,1005.56
2022-12-26T10:35:38.113Z,1005.66
2022-12-26T10:36:38.091Z,1005.67
2022-12-26T10:37:38.106Z,1005.66
2022-12-26T10:38:38.069Z,1005.60
2022-12-26T10:39:38.064Z,1005.60
2022-12-26T10:40:38.053Z,1005.68
2022-12-26T10:41:38.053Z,1005.64
2022-12-26T10:42:38.025Z,1005.52
2022-12-26T10:43:38.031Z,1005.57
2022-12-26T10:44:38.006Z,1005.63
2022-12-26T10:45:37.999Z,1005.70
2022-12-26T10:46:38.029Z,1005.56
2022-12-26T10:47:37.980Z,1005.48
2022-12-26T10:48:37.970Z,1005.60
2022-12-26T10:49:37.978Z,1005.67
2022-12-26T10:50:37.939Z,1005.69
2022-12-26T10:51:37.937Z,1005.64
2022-12-26T10:52:37.919Z,1005.68
2022-12-26T10:53:37.922Z,1005.61
2022-12-26T10:54:37.895Z,1005.57
2022-12-26T10:55:37.903Z,1005.59
2022-12-26T10:56:37.872Z,1005.59
2022-12-26T10:57:37.868Z,1005.57
2022-12-26T10:58:37.861Z,1005.64
2022-12-26T10:59:37.860Z,1005.60
2022-12-26T11:00:37.832Z,1005.69
2022-12-26T11:01:37.991Z,1005.68
2022-12-26T11:02:37.889Z,1005.59
2022-12-26T11:03:37.841Z,1005.62
2022-12-26T11:05:10.429Z,1005.58
2022-12-26T11:06:06.259Z,1005.66
2022-12-26T11:06:37.772Z,1005.63
2022-12-26T11:07:37.758Z,1005.55
2022-12-26T11:08:43.111Z,1005.59
2022-12-26T11:09:37.741Z,1005.53
2022-12-26T11:10:37.722Z,1005.48
2022-12-26T11:11:37.720Z,1005.52
2022-12-26T11:12:37.697Z,1005.49
2022-12-26T11:13:37.723Z,1005.49
2022-12-26T11:14:37.674Z,1005.61
2022-12-26T11:15:37.717Z,1005.58
2022-12-26T11:16:37.716Z,1005.55
2022-12-26T11:17:37.645Z,1005.60
2022-12-26T11:18:37.663Z,1005.53
2022-12-26T11:19:37.632Z,1005.56
2022-12-26T11:20:37.615Z,1005.50
2022-12-26T11:21:37.606Z,1005.62
2022-12-26T11:22:37.587Z,1005.54
2022-12-26T11:23:37.587Z,1005.52
2022-12-26T11:24:37.563Z,1005.47
2022-12-26T11:25:37.558Z,1005.46
2022-12-26T11:26:37.565Z,1005.53
2022-12-26T11:27:37.536Z,1005.45
2022-12-26T11:28:37.527Z,1005.48
2022-12-26T11:29:37.515Z,1005.49
2022-12-26T11:30:37.497Z,1005.47
2022-12-26T11:31:37.546Z,1005.48
2022-12-26T11:32:37.479Z,1005.41
2022-12-26T11:33:37.478Z,1005.50
2022-12-26T11:34:37.468Z,1005.41
2022-12-26T11:35:37.450Z,1005.37
2022-12-26T11:36:37.433Z,1005.40
2022-12-26T11:37:37.424Z,1005.43
2022-12-26T11:38:44.445Z,1005.44
2022-12-26T11:39:37.415Z,1005.53
2022-12-26T11:40:37.388Z,1005.44
2022-12-26T11:41:37.380Z,1005.48
2022-12-26T11:42:37.383Z,1005.44
2022-12-26T11:43:37.371Z,1005.45
2022-12-26T11:44:37.343Z,1005.48
2022-12-26T11:45:39.084Z,1005.40
2022-12-26T11:46:37.339Z,1005.44
2022-12-26T11:47:37.316Z,1005.50
2022-12-26T11:48:37.308Z,1005.54
2022-12-26T11:49:37.294Z,1005.59
2022-12-26T11:50:37.278Z,1005.41
2022-12-26T11:51:37.281Z,1005.49
2022-12-26T11:52:37.260Z,1005.53
2022-12-26T11:53:37.257Z,1005.42
2022-12-26T11:54:37.237Z,1005.53
2022-12-26T11:55:37.270Z,1005.55
2022-12-26T11:56:37.212Z,1005.47
2022-12-26T11:57:37.207Z,1005.57
2022-12-26T11:58:37.204Z,1005.52
2022-12-26T11:59:37.184Z,1005.53
2022-12-26T12:00:37.173Z,1005.49
2022-12-26T12:01:37.193Z,1005.46
2022-12-26T12:02:37.248Z,1005.46
2022-12-26T12:03:37.172Z,1005.54
2022-12-26T12:04:37.132Z,1005.52
2022-12-26T12:05:37.113Z,1005.46